createdAt,value
2022-12-19T00:00:03.398Z,0.70
2022-12-19T00:00:35.828Z,0.70
2022-12-19T00:01:08.365Z,0.70
2022-12-19T00:01:40.946Z,0.72
2022-12-19T00:02:13.600Z,0.72
2022-12-19T00:02:45.979Z,0.71
2022-12-19T00:03:18.375Z,0.72
2022-12-19T00:03:50.856Z,0.72
2022-12-19T00:04:23.181Z,0.72
2022-12-19T00:04:55.680Z,0.72
2022-12-19T00:05:28.241Z,0.72
2022-12-19T00:06:00.689Z,0.71
2022-12-19T00:06:33.125Z,0.75
2022-12-19T00:07:05.604Z,0.75
2022-12-19T00:07:38.103Z,0.75
2022-12-19T00:08:17.581Z,0.76
2022-12-19T00:08:43.090Z,0.72
2022-12-19T00:09:15.613Z,0.75
2022-12-19T00:09:48.066Z,0.76
2022-12-19T00:10:20.517Z,0.76
2022-12-19T00:10:53.001Z,0.75
2022-12-19T00:11:25.566Z,0.79
2022-12-19T00:11:58.034Z,0.75
2022-12-19T00:12:30.478Z,0.75
2022-12-19T00:13:02.978Z,0.76
2022-12-19T00:13:40.998Z,0.76
2022-12-19T00:14:07.898Z,0.76
2022-12-19T00:14:40.420Z,0.78
2022-12-19T00:15:12.866Z,0.78
2022-12-19T00:15:45.403Z,0.79
2022-12-19T00:16:18.980Z,0.80
2022-12-19T00:16:50.291Z,0.79
2022-12-19T00:17:22.734Z,0.79
2022-12-19T00:17:55.255Z,0.80
2022-12-19T00:18:27.674Z,0.80
2022-12-19T00:19:00.120Z,0.82
2022-12-19T00:19:32.548Z,0.82
2022-12-19T00:20:05.108Z,0.82
2022-12-19T00:20:38.525Z,0.82
2022-12-19T00:21:10.954Z,0.82
2022-12-19T00:21:43.423Z,0.82
2022-12-19T00:22:15.891Z,0.82
2022-12-19T00:22:48.400Z,0.82
2022-12-19T00:23:20.923Z,0.83
2022-12-19T00:23:53.381Z,0.83
2022-12-19T00:24:25.898Z,0.83
2022-12-19T00:24:58.380Z,0.85
2022-12-19T00:25:30.885Z,0.85
2022-12-19T00:26:03.429Z,0.82
2022-12-19T00:26:35.928Z,0.85
2022-12-19T00:27:08.418Z,0.86
2022-12-19T00:27:41.008Z,0.86
2022-12-19T00:28:13.442Z,0.85
2022-12-19T00:28:45.904Z,0.85
2022-12-19T00:29:18.342Z,0.88
2022-12-19T00:29:50.856Z,0.88
2022-12-19T00:30:23.338Z,0.88
2022-12-19T00:30:55.902Z,0.86
2022-12-19T00:31:28.422Z,0.86
2022-12-19T00:32:00.909Z,0.86
2022-12-19T00:32:33.385Z,0.89
2022-12-19T00:33:05.908Z,0.85
2022-12-19T00:33:38.747Z,0.88
2022-12-19T00:34:11.062Z,0.86
2022-12-19T00:34:43.576Z,0.86
2022-12-19T00:35:16.049Z,0.88
2022-12-19T00:35:48.522Z,0.86
2022-12-19T00:36:22.741Z,0.88
2022-12-19T00:36:53.454Z,0.89
2022-12-19T00:37:25.933Z,0.88
2022-12-19T00:37:58.820Z,0.89
2022-12-19T00:38:31.336Z,0.89
2022-12-19T00:39:06.345Z,0.89
2022-12-19T00:39:36.258Z,0.89
2022-12-19T00:40:08.736Z,0.90
2022-12-19T00:40:41.193Z,0.88
2022-12-19T00:41:13.652Z,0.88
2022-12-19T00:41:46.122Z,0.89
2022-12-19T00:42:18.567Z,0.90
2022-12-19T00:42:53.667Z,0.89
2022-12-19T00:43:24.218Z,0.89
2022-12-19T00:43:56.743Z,0.90
2022-12-19T00:44:29.265Z,0.92
2022-12-19T00:45:01.726Z,0.90
2022-12-19T00:45:34.283Z,0.89
2022-12-19T00:46:06.764Z,0.96
2022-12-19T00:46:39.100Z,0.94
2022-12-19T00:47:11.643Z,0.94
2022-12-19T00:47:44.141Z,0.92
2022-12-19T00:48:16.657Z,0.94
2022-12-19T00:48:49.100Z,0.96
2022-12-19T00:49:22.225Z,0.94
2022-12-19T00:49:54.679Z,0.96
2022-12-19T00:50:27.154Z,0.97
2022-12-19T00:50:59.617Z,0.97
2022-12-19T00:51:32.065Z,0.97
2022-12-19T00:52:04.539Z,0.97
2022-12-19T00:52:37.092Z,0.98
2022-12-19T00:53:09.600Z,1.00
2022-12-19T00:53:42.167Z,0.98
2022-12-19T00:54:14.608Z,0.98
2022-12-19T00:54:47.111Z,0.97
2022-12-19T00:55:19.572Z,1.00
2022-12-19T00:55:52.078Z,1.00
2022-12-19T00:56:24.570Z,1.00
2022-12-19T00:56:57.084Z,0.98
2022-12-19T00:57:29.534Z,1.00
2022-12-19T00:58:01.970Z,0.98
2022-12-19T00:58:35.581Z,1.01
2022-12-19T00:59:06.903Z,1.00
2022-12-19T00:59:39.457Z,1.01
2022-12-19T01:00:12.491Z,1.01
2022-12-19T01:00:45.022Z,1.01
2022-12-19T01:01:17.639Z,1.01
2022-12-19T01:01:50.215Z,1.01
2022-12-19T01:02:22.638Z,1.01
2022-12-19T01:02:55.046Z,1.04
2022-12-19T01:03:27.392Z,1.03
2022-12-19T01:04:28.470Z,1.03
2022-12-19T01:04:36.763Z,1.03
2022-12-19T01:05:04.823Z,1.06
2022-12-19T01:05:37.265Z,1.04
2022-12-19T01:06:09.759Z,1.04
2022-12-19T01:06:42.350Z,1.03
2022-12-19T01:07:14.849Z,1.07
2022-12-19T01:07:47.353Z,1.04
2022-12-19T01:08:19.884Z,1.07
2022-12-19T01:08:52.317Z,1.07
2022-12-19T01:09:24.779Z,1.06
2022-12-19T01:09:57.296Z,1.06
2022-12-19T01:10:29.850Z,1.07
2022-12-19T01:11:02.331Z,1.07
2022-12-19T01:11:35.556Z,1.07
2022-12-19T01:12:08.081Z,1.07
2022-12-19T01:12:40.661Z,1.08
2022-12-19T01:13:13.107Z,1.07
2022-12-19T01:13:45.608Z,1.07
2022-12-19T01:14:22.719Z,1.07
2022-12-19T01:14:50.621Z,1.08
2022-12-19T01:15:23.125Z,1.08
2022-12-19T01:15:55.589Z,1.10
2022-12-19T01:16:28.137Z,1.10
2022-12-19T01:17:00.422Z,1.10
2022-12-19T01:17:32.877Z,1.08
2022-12-19T01:18:05.402Z,1.10
2022-12-19T01:18:37.907Z,1.10
2022-12-19T01:19:10.421Z,1.10
2022-12-19T01:19:44.539Z,1.12
2022-12-19T01:20:15.421Z,1.12
2022-12-19T01:20:47.889Z,1.12
2022-12-19T01:21:21.005Z,1.12
2022-12-19T01:21:53.549Z,1.14
2022-12-19T01:22:26.027Z,1.14
2022-12-19T01:23:00.039Z,1.12
2022-12-19T01:23:31.048Z,1.12
2022-12-19T01:24:05.213Z,1.12
2022-12-19T01:24:37.750Z,1.15
2022-12-19T01:25:10.234Z,1.10
2022-12-19T01:25:45.932Z,1.15
2022-12-19T01:26:15.176Z,1.10
2022-12-19T01:26:47.653Z,1.14
2022-12-19T01:27:20.089Z,1.12
2022-12-19T01:27:52.508Z,1.12
2022-12-19T01:28:24.982Z,1.12
2022-12-19T01:28:57.452Z,1.12
2022-12-19T01:29:29.941Z,1.10
2022-12-19T01:30:02.429Z,1.14
2022-12-19T01:30:34.950Z,1.15
2022-12-19T01:31:07.453Z,1.15
2022-12-19T01:31:40.022Z,1.14
2022-12-19T01:32:12.414Z,1.16
2022-12-19T01:32:44.974Z,1.18
2022-12-19T01:33:17.429Z,1.16
2022-12-19T01:33:49.912Z,1.16
2022-12-19T01:34:22.381Z,1.18
2022-12-19T01:34:54.835Z,1.15
2022-12-19T01:35:27.327Z,1.16
2022-12-19T01:35:59.835Z,1.18
2022-12-19T01:36:32.365Z,1.18
2022-12-19T01:37:04.819Z,1.19
2022-12-19T01:37:37.368Z,1.19
2022-12-19T01:38:09.823Z,1.18
2022-12-19T01:38:42.356Z,1.21
2022-12-19T01:39:14.824Z,1.19
2022-12-19T01:39:47.283Z,1.19
2022-12-19T01:40:19.724Z,1.18
2022-12-19T01:40:52.730Z,1.18
2022-12-19T01:41:25.175Z,1.18
2022-12-19T01:41:57.670Z,1.21
2022-12-19T01:42:30.216Z,1.18
2022-12-19T01:43:02.759Z,1.18
2022-12-19T01:43:35.274Z,1.19
2022-12-19T01:44:07.773Z,1.18
2022-12-19T01:44:40.311Z,1.19
2022-12-19T01:45:14.105Z,1.22
2022-12-19T01:45:46.468Z,1.21
2022-12-19T01:46:17.854Z,1.24
2022-12-19T01:46:50.246Z,1.24
2022-12-19T01:47:22.830Z,1.24
2022-12-19T01:47:55.351Z,1.25
2022-12-19T01:48:28.804Z,1.28
2022-12-19T01:49:01.332Z,1.25
2022-12-19T01:49:33.884Z,1.26
2022-12-19T01:50:06.417Z,1.28
2022-12-19T01:50:40.374Z,1.29
2022-12-19T01:51:11.381Z,1.29
2022-12-19T01:51:44.498Z,1.29
2022-12-19T01:52:22.987Z,1.29
2022-12-19T01:52:49.469Z,1.28
2022-12-19T01:53:22.067Z,1.29
2022-12-19T01:53:54.664Z,1.29
2022-12-19T01:54:27.193Z,1.29
2022-12-19T01:54:59.659Z,1.32
2022-12-19T01:55:32.204Z,1.29
2022-12-19T01:56:07.683Z,1.29
2022-12-19T01:56:40.220Z,1.32
2022-12-19T01:57:12.688Z,1.33
2022-12-19T01:57:45.173Z,1.32
2022-12-19T01:58:17.626Z,1.34
2022-12-19T01:58:50.142Z,1.36
2022-12-19T01:59:22.747Z,1.34
2022-12-19T01:59:55.301Z,1.33
2022-12-19T02:00:27.880Z,1.36
2022-12-19T02:01:00.448Z,1.36
2022-12-19T02:01:33.015Z,1.34
2022-12-19T02:02:05.580Z,1.36
2022-12-19T02:02:38.265Z,1.39
2022-12-19T02:03:10.790Z,1.39
2022-12-19T02:03:43.213Z,1.39
2022-12-19T02:04:15.791Z,1.39
2022-12-19T02:04:48.305Z,1.42
2022-12-19T02:05:20.895Z,1.40
2022-12-19T02:05:53.400Z,1.39
2022-12-19T02:06:25.917Z,1.39
2022-12-19T02:06:58.462Z,1.43
2022-12-19T02:07:31.059Z,1.42
2022-12-19T02:08:03.531Z,1.42
2022-12-19T02:08:36.013Z,1.44
2022-12-19T02:09:08.537Z,1.44
2022-12-19T02:09:41.158Z,1.44
2022-12-19T02:10:13.716Z,1.43
2022-12-19T02:10:46.206Z,1.44
2022-12-19T02:11:18.700Z,1.44
2022-12-19T02:11:51.261Z,1.46
2022-12-19T02:12:23.805Z,1.44
2022-12-19T02:12:56.355Z,1.44
2022-12-19T02:13:28.842Z,1.43
2022-12-19T02:14:01.350Z,1.44
2022-12-19T02:14:33.872Z,1.46
2022-12-19T02:15:06.306Z,1.44
2022-12-19T02:15:38.806Z,1.47
2022-12-19T02:16:11.339Z,1.47
2022-12-19T02:16:43.864Z,1.50
2022-12-19T02:17:16.271Z,1.50
2022-12-19T02:17:48.805Z,1.47
2022-12-19T02:18:21.270Z,1.50
2022-12-19T02:18:53.818Z,1.51
2022-12-19T02:19:26.297Z,1.47
2022-12-19T02:19:58.773Z,1.51
2022-12-19T02:20:31.437Z,1.52
2022-12-19T02:21:03.951Z,1.52
2022-12-19T02:21:36.396Z,1.52
2022-12-19T02:22:08.996Z,1.52
2022-12-19T02:22:41.566Z,1.54
2022-12-19T02:23:14.086Z,1.55
2022-12-19T02:23:46.627Z,1.54
2022-12-19T02:24:19.144Z,1.57
2022-12-19T02:24:51.684Z,1.58
2022-12-19T02:25:24.204Z,1.60
2022-12-19T02:25:56.941Z,1.60
2022-12-19T02:26:29.146Z,1.61
2022-12-19T02:27:01.642Z,1.61
2022-12-19T02:27:38.474Z,1.60
2022-12-19T02:28:06.607Z,1.60
2022-12-19T02:28:39.108Z,1.61
2022-12-19T02:29:11.550Z,1.61
2022-12-19T02:29:44.073Z,1.62
2022-12-19T02:30:16.524Z,1.62
2022-12-19T02:30:48.979Z,1.61
2022-12-19T02:31:21.591Z,1.61
2022-12-19T02:31:54.084Z,1.62
2022-12-19T02:32:26.492Z,1.61
2022-12-19T02:32:58.929Z,1.64
2022-12-19T02:33:31.461Z,1.62
2022-12-19T02:34:03.999Z,1.62
2022-12-19T02:34:38.839Z,1.62
2022-12-19T02:35:09.018Z,1.65
2022-12-19T02:35:41.548Z,1.64
2022-12-19T02:36:13.989Z,1.68
2022-12-19T02:36:46.492Z,1.68
2022-12-19T02:37:19.249Z,1.69
2022-12-19T02:37:52.896Z,1.68
2022-12-19T02:38:24.223Z,1.69
2022-12-19T02:38:56.736Z,1.68
2022-12-19T02:39:29.162Z,1.68
2022-12-19T02:40:01.615Z,1.65
2022-12-19T02:40:34.079Z,1.71
2022-12-19T02:41:06.560Z,1.68
2022-12-19T02:41:39.067Z,1.71
2022-12-19T02:42:11.569Z,1.71
2022-12-19T02:42:44.053Z,1.73
2022-12-19T02:43:16.536Z,1.71
2022-12-19T02:43:49.086Z,1.75
2022-12-19T02:44:21.446Z,1.73
2022-12-19T02:44:53.924Z,1.76
2022-12-19T02:45:28.612Z,1.78
2022-12-19T02:45:58.970Z,1.79
2022-12-19T02:46:31.555Z,1.79
2022-12-19T02:47:04.015Z,1.78
2022-12-19T02:47:36.536Z,1.79
2022-12-19T02:48:09.295Z,1.76
2022-12-19T02:48:41.471Z,1.80
2022-12-19T02:49:16.565Z,1.80
2022-12-19T02:49:46.527Z,1.80
2022-12-19T02:50:19.049Z,1.82
2022-12-19T02:50:51.616Z,1.82
2022-12-19T02:51:24.134Z,1.80
2022-12-19T02:51:56.589Z,1.80
2022-12-19T02:52:29.159Z,1.80
2022-12-19T02:53:01.663Z,1.80
2022-12-19T02:53:34.227Z,1.82
2022-12-19T02:54:06.790Z,1.82
2022-12-19T02:54:40.757Z,1.83
2022-12-19T02:55:11.792Z,1.83
2022-12-19T02:55:44.299Z,1.87
2022-12-19T02:56:16.826Z,1.87
2022-12-19T02:56:49.289Z,1.87
2022-12-19T02:57:21.827Z,1.90
2022-12-19T02:57:54.335Z,1.87
2022-12-19T02:58:26.824Z,1.89
2022-12-19T02:58:59.285Z,1.91
2022-12-19T02:59:31.766Z,1.91
2022-12-19T03:00:04.296Z,1.94
2022-12-19T03:00:36.885Z,1.94
2022-12-19T03:01:09.444Z,1.94
2022-12-19T03:01:42.096Z,1.97
2022-12-19T03:02:14.660Z,1.98
2022-12-19T03:02:53.846Z,1.98
2022-12-19T03:03:19.531Z,1.99
2022-12-19T03:03:51.965Z,2.01
2022-12-19T03:04:24.491Z,2.02
2022-12-19T03:04:56.915Z,1.99
2022-12-19T03:05:29.430Z,2.02
2022-12-19T03:06:01.962Z,2.04
2022-12-19T03:06:34.429Z,2.02
2022-12-19T03:07:06.935Z,2.02
2022-12-19T03:07:39.491Z,2.04
2022-12-19T03:08:11.976Z,2.04
2022-12-19T03:08:44.427Z,2.06
2022-12-19T03:09:16.900Z,2.04
2022-12-19T03:09:50.220Z,2.06
2022-12-19T03:10:22.711Z,2.06
2022-12-19T03:10:55.236Z,2.02
2022-12-19T03:11:27.777Z,2.02
2022-12-19T03:12:00.326Z,2.02
2022-12-19T03:12:32.778Z,2.02
2022-12-19T03:13:05.239Z,2.02
2022-12-19T03:13:37.697Z,2.02
2022-12-19T03:14:10.229Z,2.02
2022-12-19T03:14:42.808Z,2.02
2022-12-19T03:15:15.276Z,2.04
2022-12-19T03:15:47.744Z,2.01
2022-12-19T03:16:20.349Z,2.04
2022-12-19T03:16:52.941Z,2.06
2022-12-19T03:17:25.423Z,2.06
2022-12-19T03:17:57.956Z,2.04
2022-12-19T03:18:30.455Z,2.06
2022-12-19T03:19:02.891Z,2.06
2022-12-19T03:19:35.395Z,2.08
2022-12-19T03:20:07.836Z,2.08
2022-12-19T03:20:40.328Z,2.08
2022-12-19T03:21:12.843Z,2.09
2022-12-19T03:21:45.375Z,2.08
2022-12-19T03:22:17.830Z,2.10
2022-12-19T03:22:50.287Z,2.09
2022-12-19T03:23:22.783Z,2.09
2022-12-19T03:23:55.275Z,2.09
2022-12-19T03:24:27.828Z,2.06
2022-12-19T03:25:00.368Z,2.06
2022-12-19T03:25:32.808Z,2.06
2022-12-19T03:26:05.954Z,2.04
2022-12-19T03:26:38.501Z,2.06
2022-12-19T03:27:11.017Z,2.06
2022-12-19T03:27:43.543Z,2.08
2022-12-19T03:28:17.020Z,2.12
2022-12-19T03:28:49.543Z,2.10
2022-12-19T03:29:21.991Z,2.13
2022-12-19T03:29:54.478Z,2.12
2022-12-19T03:30:27.060Z,2.15
2022-12-19T03:30:59.561Z,2.13
2022-12-19T03:31:32.019Z,2.13
2022-12-19T03:32:05.041Z,2.15
2022-12-19T03:32:37.520Z,2.15
2022-12-19T03:33:10.049Z,2.13
2022-12-19T03:33:42.577Z,2.13
2022-12-19T03:34:15.729Z,2.15
2022-12-19T03:34:48.266Z,2.13
2022-12-19T03:35:20.747Z,2.16
2022-12-19T03:35:53.242Z,2.13
2022-12-19T03:36:26.510Z,2.12
2022-12-19T03:36:59.008Z,2.10
2022-12-19T03:37:31.549Z,2.10
2022-12-19T03:38:04.075Z,2.10
2022-12-19T03:38:36.533Z,2.13
2022-12-19T03:39:09.029Z,2.10
2022-12-19T03:39:41.541Z,2.12
2022-12-19T03:40:14.029Z,2.12
2022-12-19T03:40:46.586Z,2.16
2022-12-19T03:41:19.098Z,2.16
2022-12-19T03:41:52.728Z,2.15
2022-12-19T03:42:25.291Z,2.19
2022-12-19T03:42:57.711Z,2.20
2022-12-19T03:43:30.225Z,2.20
2022-12-19T03:44:02.729Z,2.20
2022-12-19T03:44:35.289Z,2.20
2022-12-19T03:45:07.769Z,2.20
2022-12-19T03:45:40.406Z,2.23
2022-12-19T03:46:12.810Z,2.20
2022-12-19T03:46:45.248Z,2.22
2022-12-19T03:47:17.771Z,2.23
2022-12-19T03:47:50.254Z,2.22
2022-12-19T03:48:22.812Z,2.27
2022-12-19T03:48:55.296Z,2.26
2022-12-19T03:49:27.748Z,2.27
2022-12-19T03:50:00.744Z,2.28
2022-12-19T03:50:33.241Z,2.30
2022-12-19T03:51:05.738Z,2.30
2022-12-19T03:51:38.221Z,2.30
2022-12-19T03:52:10.692Z,2.30
2022-12-19T03:52:43.178Z,2.30
2022-12-19T03:53:15.732Z,2.27
2022-12-19T03:53:48.224Z,2.26
2022-12-19T03:54:21.240Z,2.30
2022-12-19T03:54:53.763Z,2.28
2022-12-19T03:55:26.287Z,2.27
2022-12-19T03:55:58.885Z,2.28
2022-12-19T03:56:32.244Z,2.27
2022-12-19T03:57:04.762Z,2.27
2022-12-19T03:57:37.233Z,2.28
2022-12-19T03:58:09.683Z,2.27
2022-12-19T03:58:42.204Z,2.26
2022-12-19T03:59:14.734Z,2.26
2022-12-19T03:59:47.269Z,2.23
2022-12-19T04:00:19.780Z,2.28
2022-12-19T04:00:52.501Z,2.27
2022-12-19T04:01:25.160Z,2.26
2022-12-19T04:01:57.760Z,2.28
2022-12-19T04:02:30.148Z,2.28
2022-12-19T04:03:02.630Z,2.30
2022-12-19T04:03:35.792Z,2.28
2022-12-19T04:04:08.254Z,2.28
2022-12-19T04:04:40.845Z,2.28
2022-12-19T04:05:13.397Z,2.27
2022-12-19T04:05:45.919Z,2.26
2022-12-19T04:06:18.466Z,2.27
2022-12-19T04:06:51.098Z,2.26
2022-12-19T04:07:23.620Z,2.26
2022-12-19T04:07:56.194Z,2.22
2022-12-19T04:08:29.535Z,2.26
2022-12-19T04:09:02.043Z,2.27
2022-12-19T04:09:34.617Z,2.27
2022-12-19T04:10:07.156Z,2.26
2022-12-19T04:10:39.734Z,2.28
2022-12-19T04:11:12.280Z,2.26
2022-12-19T04:11:44.847Z,2.28
2022-12-19T04:12:17.999Z,2.26
2022-12-19T04:12:50.565Z,2.26
2022-12-19T04:13:23.065Z,2.26
2022-12-19T04:13:55.558Z,2.23
2022-12-19T04:14:28.096Z,2.22
2022-12-19T04:15:01.542Z,2.20
2022-12-19T04:15:34.132Z,2.19
2022-12-19T04:16:06.694Z,2.20
2022-12-19T04:16:39.267Z,2.20
2022-12-19T04:17:11.788Z,2.19
2022-12-19T04:17:44.332Z,2.17
2022-12-19T04:18:16.740Z,2.20
2022-12-19T04:18:49.190Z,2.20
2022-12-19T04:19:21.690Z,2.22
2022-12-19T04:19:54.140Z,2.20
2022-12-19T04:20:26.659Z,2.20
2022-12-19T04:20:59.140Z,2.22
2022-12-19T04:21:31.604Z,2.23
2022-12-19T04:22:04.084Z,2.27
2022-12-19T04:22:36.577Z,2.23
2022-12-19T04:23:09.035Z,2.23
2022-12-19T04:23:41.616Z,2.26
2022-12-19T04:24:14.159Z,2.27
2022-12-19T04:24:46.692Z,2.28
2022-12-19T04:25:19.220Z,2.28
2022-12-19T04:25:51.724Z,2.30
2022-12-19T04:26:24.134Z,2.33
2022-12-19T04:26:56.611Z,2.31
2022-12-19T04:27:29.084Z,2.34
2022-12-19T04:28:01.596Z,2.34
2022-12-19T04:28:34.058Z,2.35
2022-12-19T04:29:06.570Z,2.34
2022-12-19T04:29:39.121Z,2.34
2022-12-19T04:30:12.542Z,2.33
2022-12-19T04:30:45.066Z,2.34
2022-12-19T04:31:17.553Z,2.34
2022-12-19T04:31:50.002Z,2.31
2022-12-19T04:32:22.511Z,2.34
2022-12-19T04:32:55.038Z,2.33
2022-12-19T04:33:27.535Z,2.28
2022-12-19T04:34:00.014Z,2.28
2022-12-19T04:34:32.477Z,2.31
2022-12-19T04:35:04.984Z,2.28
2022-12-19T04:35:37.501Z,2.28
2022-12-19T04:36:10.002Z,2.27
2022-12-19T04:36:42.583Z,2.30
2022-12-19T04:37:15.131Z,2.31
2022-12-19T04:37:47.726Z,2.31
2022-12-19T04:38:20.743Z,2.31
2022-12-19T04:38:53.188Z,2.33
2022-12-19T04:39:25.778Z,2.33
2022-12-19T04:39:58.252Z,2.34
2022-12-19T04:40:30.746Z,2.35
2022-12-19T04:41:03.263Z,2.37
2022-12-19T04:41:35.847Z,2.40
2022-12-19T04:42:08.347Z,2.38
2022-12-19T04:42:40.899Z,2.38
2022-12-19T04:43:13.488Z,2.41
2022-12-19T04:43:46.760Z,2.40
2022-12-19T04:44:19.264Z,2.41
2022-12-19T04:44:51.738Z,2.44
2022-12-19T04:45:24.226Z,2.44
2022-12-19T04:45:57.750Z,2.45
2022-12-19T04:46:29.219Z,2.44
2022-12-19T04:47:02.369Z,2.45
2022-12-19T04:47:35.514Z,2.45
2022-12-19T04:48:08.203Z,2.46
2022-12-19T04:48:40.428Z,2.46
2022-12-19T04:49:12.926Z,2.46
2022-12-19T04:49:45.402Z,2.48
2022-12-19T04:50:17.895Z,2.49
2022-12-19T04:50:50.381Z,2.49
2022-12-19T04:51:22.815Z,2.49
2022-12-19T04:51:55.314Z,2.51
2022-12-19T04:52:27.826Z,2.49
2022-12-19T04:53:00.280Z,2.49
2022-12-19T04:53:32.888Z,2.49
2022-12-19T04:54:05.412Z,2.51
2022-12-19T04:54:37.943Z,2.49
2022-12-19T04:55:10.422Z,2.49
2022-12-19T04:55:42.884Z,2.46
2022-12-19T04:56:15.324Z,2.49
2022-12-19T04:56:47.785Z,2.49
2022-12-19T04:57:20.237Z,2.48
2022-12-19T04:57:52.806Z,2.46
2022-12-19T04:58:26.038Z,2.49
2022-12-19T04:58:58.502Z,2.49
2022-12-19T04:59:30.968Z,2.49
2022-12-19T05:00:03.505Z,2.49
2022-12-19T05:00:35.959Z,2.53
2022-12-19T05:01:08.478Z,2.52
2022-12-19T05:01:41.078Z,2.55
2022-12-19T05:02:13.644Z,2.53
2022-12-19T05:02:46.303Z,2.53
2022-12-19T05:03:18.759Z,2.56
2022-12-19T05:03:54.707Z,2.58
2022-12-19T05:04:23.777Z,2.58
2022-12-19T05:04:56.245Z,2.59
2022-12-19T05:05:28.790Z,2.61
2022-12-19T05:06:01.294Z,2.64
2022-12-19T05:06:33.715Z,2.63
2022-12-19T05:07:06.198Z,2.64
2022-12-19T05:07:38.640Z,2.66
2022-12-19T05:08:11.144Z,2.66
2022-12-19T05:08:43.600Z,2.63
2022-12-19T05:09:16.091Z,2.61
2022-12-19T05:09:48.559Z,2.63
2022-12-19T05:10:21.042Z,2.64
2022-12-19T05:10:53.475Z,2.64
2022-12-19T05:11:26.039Z,2.63
2022-12-19T05:11:58.490Z,2.64
2022-12-19T05:12:30.974Z,2.66
2022-12-19T05:13:03.545Z,2.66
2022-12-19T05:13:36.146Z,2.69
2022-12-19T05:14:15.969Z,2.69
2022-12-19T05:14:48.415Z,2.69
2022-12-19T05:15:20.832Z,2.69
2022-12-19T05:15:53.265Z,2.70
2022-12-19T05:16:25.702Z,2.69
2022-12-19T05:17:01.619Z,2.69
2022-12-19T05:17:30.707Z,2.69
2022-12-19T05:18:03.291Z,2.70
2022-12-19T05:18:35.732Z,2.66
2022-12-19T05:19:08.242Z,2.67
2022-12-19T05:19:40.682Z,2.67
2022-12-19T05:20:13.133Z,2.70
2022-12-19T05:20:45.645Z,2.69
2022-12-19T05:21:18.133Z,2.69
2022-12-19T05:21:50.619Z,2.70
2022-12-19T05:22:23.092Z,2.69
2022-12-19T05:22:55.674Z,2.70
2022-12-19T05:23:28.166Z,2.70
2022-12-19T05:24:00.672Z,2.70
2022-12-19T05:24:33.166Z,2.70
2022-12-19T05:25:05.762Z,2.69
2022-12-19T05:25:38.254Z,2.67
2022-12-19T05:26:10.742Z,2.64
2022-12-19T05:26:43.222Z,2.67
2022-12-19T05:27:15.682Z,2.64
2022-12-19T05:27:48.119Z,2.66
2022-12-19T05:28:20.566Z,2.66
2022-12-19T05:28:53.053Z,2.69
2022-12-19T05:29:25.531Z,2.69
2022-12-19T05:29:57.976Z,2.70
2022-12-19T05:30:30.406Z,2.69
2022-12-19T05:31:02.970Z,2.70
2022-12-19T05:31:35.454Z,2.71
2022-12-19T05:32:07.941Z,2.69
2022-12-19T05:32:40.472Z,2.70
2022-12-19T05:33:12.979Z,2.71
2022-12-19T05:33:45.514Z,2.73
2022-12-19T05:34:18.026Z,2.76
2022-12-19T05:34:50.519Z,2.77
2022-12-19T05:35:22.949Z,2.79
2022-12-19T05:35:55.470Z,2.82
2022-12-19T05:36:32.330Z,2.79
2022-12-19T05:37:00.530Z,2.82
2022-12-19T05:37:33.040Z,2.82
2022-12-19T05:38:05.503Z,2.82
2022-12-19T05:38:37.954Z,2.85
2022-12-19T05:39:10.447Z,2.82
2022-12-19T05:39:42.926Z,2.87
2022-12-19T05:40:15.451Z,2.88
2022-12-19T05:40:47.936Z,2.87
2022-12-19T05:41:20.508Z,2.89
2022-12-19T05:41:52.977Z,2.89
2022-12-19T05:42:25.433Z,2.88
2022-12-19T05:42:57.873Z,2.88
2022-12-19T05:43:30.316Z,2.89
2022-12-19T05:44:02.831Z,2.89
2022-12-19T05:44:35.346Z,2.91
2022-12-19T05:45:07.845Z,2.92
2022-12-19T05:45:40.328Z,2.92
2022-12-19T05:46:12.864Z,2.95
2022-12-19T05:46:45.348Z,2.94
2022-12-19T05:47:17.761Z,2.94
2022-12-19T05:47:50.211Z,2.92
2022-12-19T05:48:22.653Z,2.95
2022-12-19T05:48:55.194Z,2.98
2022-12-19T05:49:27.676Z,3.06
2022-12-19T05:50:00.209Z,3.06
2022-12-19T05:50:32.699Z,3.09
2022-12-19T05:51:05.151Z,3.09
2022-12-19T05:51:37.601Z,3.12
2022-12-19T05:52:10.139Z,3.13
2022-12-19T05:52:42.640Z,3.15
2022-12-19T05:53:15.099Z,3.18
2022-12-19T05:53:47.592Z,3.20
2022-12-19T05:54:20.048Z,3.23
2022-12-19T05:54:52.517Z,3.27
2022-12-19T05:55:24.945Z,3.27
2022-12-19T05:55:57.389Z,3.28
2022-12-19T05:56:29.830Z,3.31
2022-12-19T05:57:02.341Z,3.36
2022-12-19T05:57:34.839Z,3.39
2022-12-19T05:58:07.352Z,3.40
2022-12-19T05:58:39.831Z,3.40
2022-12-19T05:59:12.306Z,3.42
2022-12-19T05:59:44.733Z,3.39
2022-12-19T06:00:17.181Z,3.42
2022-12-19T06:00:49.694Z,3.43
2022-12-19T06:01:22.224Z,3.46
2022-12-19T06:01:54.738Z,3.49
2022-12-19T06:02:27.195Z,3.47
2022-12-19T06:02:59.668Z,3.46
2022-12-19T06:03:32.215Z,3.52
2022-12-19T06:04:04.552Z,3.53
2022-12-19T06:04:37.033Z,3.53
2022-12-19T06:05:09.510Z,3.54
2022-12-19T06:05:41.977Z,3.53
2022-12-19T06:06:14.429Z,3.52
2022-12-19T06:06:46.884Z,3.52
2022-12-19T06:07:21.017Z,3.53
2022-12-19T06:07:51.841Z,3.57
2022-12-19T06:08:24.327Z,3.57
2022-12-19T06:08:56.939Z,3.58
2022-12-19T06:09:29.590Z,3.54
2022-12-19T06:10:02.157Z,3.58
2022-12-19T06:10:34.723Z,3.61
2022-12-19T06:11:07.224Z,3.61
2022-12-19T06:11:39.749Z,3.60
2022-12-19T06:12:12.197Z,3.61
2022-12-19T06:12:44.647Z,3.62
2022-12-19T06:13:19.734Z,3.64
2022-12-19T06:13:49.629Z,3.61
2022-12-19T06:14:22.101Z,3.64
2022-12-19T06:14:54.604Z,3.60
2022-12-19T06:15:27.076Z,3.61
2022-12-19T06:15:59.614Z,3.61
2022-12-19T06:16:32.133Z,3.60
2022-12-19T06:17:04.580Z,3.60
2022-12-19T06:17:37.081Z,3.60
2022-12-19T06:18:09.581Z,3.61
2022-12-19T06:18:44.773Z,3.64
2022-12-19T06:19:14.658Z,3.65
2022-12-19T06:19:47.144Z,3.70
2022-12-19T06:20:19.568Z,3.68
2022-12-19T06:20:52.084Z,3.68
2022-12-19T06:21:24.580Z,3.67
2022-12-19T06:21:57.095Z,3.67
2022-12-19T06:22:29.582Z,3.71
2022-12-19T06:23:02.111Z,3.75
2022-12-19T06:23:34.578Z,3.78
2022-12-19T06:24:07.095Z,3.75
2022-12-19T06:24:39.633Z,3.76
2022-12-19T06:25:12.176Z,3.79
2022-12-19T06:25:44.708Z,3.80
2022-12-19T06:26:19.592Z,3.82
2022-12-19T06:26:49.613Z,3.79
2022-12-19T06:27:22.077Z,3.80
2022-12-19T06:27:54.547Z,3.79
2022-12-19T06:28:26.970Z,3.78
2022-12-19T06:28:59.464Z,3.76
2022-12-19T06:29:31.977Z,3.78
2022-12-19T06:30:04.417Z,3.78
2022-12-19T06:30:36.883Z,3.76
2022-12-19T06:31:09.415Z,3.78
2022-12-19T06:31:41.931Z,3.75
2022-12-19T06:32:14.379Z,3.75
2022-12-19T06:32:46.829Z,3.76
2022-12-19T06:33:19.290Z,3.76
2022-12-19T06:33:51.812Z,3.78
2022-12-19T06:34:54.874Z,3.78
2022-12-19T06:35:04.129Z,3.79
2022-12-19T06:35:29.356Z,3.78
2022-12-19T06:36:01.850Z,3.76
2022-12-19T06:36:34.348Z,3.72
2022-12-19T06:37:08.292Z,3.78
2022-12-19T06:37:39.661Z,3.79
2022-12-19T06:38:11.866Z,3.79
2022-12-19T06:38:44.396Z,3.80
2022-12-19T06:39:16.925Z,3.80
2022-12-19T06:39:49.449Z,3.80
2022-12-19T06:40:21.889Z,3.79
2022-12-19T06:40:54.435Z,3.79
2022-12-19T06:41:26.950Z,3.76
2022-12-19T06:41:59.521Z,3.75
2022-12-19T06:42:32.088Z,3.80
2022-12-19T06:43:04.640Z,3.83
2022-12-19T06:43:37.221Z,3.89
2022-12-19T06:44:09.659Z,3.90
2022-12-19T06:44:42.104Z,3.96
2022-12-19T06:45:15.496Z,3.96
2022-12-19T06:45:47.995Z,3.97
2022-12-19T06:46:20.554Z,3.97
2022-12-19T06:46:52.958Z,3.97
2022-12-19T06:47:25.467Z,3.98
2022-12-19T06:47:57.915Z,3.98
2022-12-19T06:48:30.372Z,4.00
2022-12-19T06:49:02.827Z,4.01
2022-12-19T06:49:35.296Z,4.00
2022-12-19T06:50:07.834Z,3.98
2022-12-19T06:50:40.322Z,3.96
2022-12-19T06:51:12.775Z,3.92
2022-12-19T06:51:45.218Z,3.89
2022-12-19T06:52:17.687Z,3.88
2022-12-19T06:52:50.139Z,3.85
2022-12-19T06:53:23.023Z,3.90
2022-12-19T06:53:55.473Z,3.92
2022-12-19T06:54:27.903Z,3.97
2022-12-19T06:55:00.411Z,4.03
2022-12-19T06:55:32.917Z,4.06
2022-12-19T06:56:05.436Z,4.08
2022-12-19T06:56:37.908Z,4.08
2022-12-19T06:57:10.397Z,4.07
2022-12-19T06:57:42.815Z,4.07
2022-12-19T06:58:17.344Z,4.01
2022-12-19T06:58:47.861Z,3.98
2022-12-19T06:59:20.297Z,3.92
2022-12-19T06:59:52.729Z,3.92
2022-12-19T07:00:25.178Z,3.90
2022-12-19T07:00:57.666Z,3.96
2022-12-19T07:01:30.211Z,3.97
2022-12-19T07:02:02.621Z,4.00
2022-12-19T07:02:35.097Z,4.00
2022-12-19T07:03:07.586Z,4.01
2022-12-19T07:03:40.038Z,4.01
2022-12-19T07:04:12.456Z,4.06
2022-12-19T07:04:44.960Z,4.07
2022-12-19T07:05:17.411Z,4.07
2022-12-19T07:05:49.850Z,4.10
2022-12-19T07:06:22.332Z,4.14
2022-12-19T07:06:54.810Z,4.15
2022-12-19T07:07:27.340Z,4.18
2022-12-19T07:07:59.776Z,4.16
2022-12-19T07:08:32.242Z,4.12
2022-12-19T07:09:04.687Z,4.10
2022-12-19T07:09:37.162Z,4.10
2022-12-19T07:10:09.668Z,4.07
2022-12-19T07:10:42.194Z,4.06
2022-12-19T07:11:14.672Z,4.03
2022-12-19T07:11:47.148Z,4.03
2022-12-19T07:12:19.656Z,4.03
2022-12-19T07:12:52.195Z,4.03